Silver, Texas
Current Conditions -  °F | °C
As of 2:15 AM on Tuesday 27 Jan 2015 (Local Time) from KSWW Reporting Station
Clear Clear  
Wind Chill:   Ceiling: Unl
Heat Index: 10°   Visibility: 10mi
Dew Point:   Wind: 14mph
Humidity: 57%   Direction: 230°SW
Pressure: 30.22"   Gusts: NA
Location:  32.07°N, 100.68°W
Report Text: KSWW 270815Z AUTO 23012KT 10SM CLR 10/02 A3022 RMK AO2 T00960015
Loading
Personal Weather Stations






























Interactive Weather Map New forecast layout! Learn more

10-Day Weather Forecast

Advertisements
Track Severe Weather on mobile